»·PEaware :: N740BC NONE-74S

N740BC :: NONE-74S

FLIGHT INFORMATION

Flight Status: Arrived
Operator: Privately registered:
United States
More flights under this callsign
Pilot: Tom S. (20391)
Aircraft: CESSNA 182 SKYLANE
(C182)
More flights by this aircraft type
Origin: NONE
Destination: 74S Anacortes
United States
More flights between these airports :: More routes between these airports
Route: +
File this flight plan on PilotEdge
Remarks:
Altitude:
(Current/Filed)
2,500ft
Speed:
(Current/Filed)
0kts
Departed: 21-Oct-18 12:02 PM
Arrived: 21-Oct-18 12:51 PM
Distance/Time
Traveled:
Not Available
Distance/Time
To Go:
Arrived

Flight Plot

Page will automatically refresh every two minutes.


Map Options




Map Legend


Flown Route
Filed Route
Departure Airport
Arrival Airport
Navaid (VOR, NDB)
Fix

Horizontal Profiles

Position Reports

Time Latitude Longitude Heading Altitude Ground
Speed
21-Oct-18 12:03 48.673212 -122.908236 344 942ft 56kts
21-Oct-18 12:04 48.691079 -122.911003 0 462ft 61kts
21-Oct-18 12:05 48.702708 -122.910657 358 54ft 46kts
21-Oct-18 12:06 48.707225 -122.910458 66 16ft 2kts
21-Oct-18 12:07 48.705363 -122.909612 179 16ft 3kts
21-Oct-18 12:08 48.705339 -122.909612 179 16ft 0kts
21-Oct-18 12:09 48.705339 -122.909612 179 16ft 0kts
21-Oct-18 12:10 48.705339 -122.909612 179 16ft 0kts
21-Oct-18 12:11 48.705339 -122.909612 179 16ft 0kts
21-Oct-18 12:12 48.705339 -122.909612 179 16ft 0kts
21-Oct-18 12:13 48.705339 -122.909612 179 16ft 0kts
21-Oct-18 12:14 48.705339 -122.909612 179 16ft 0kts
21-Oct-18 12:15 48.705339 -122.909612 179 16ft 0kts
21-Oct-18 12:16 48.705339 -122.909612 179 16ft 0kts
21-Oct-18 12:17 48.705339 -122.909612 179 16ft 0kts
21-Oct-18 12:18 48.705339 -122.909612 179 16ft 0kts
21-Oct-18 12:19 48.705339 -122.909612 179 16ft 0kts
21-Oct-18 12:20 48.705339 -122.909612 179 16ft 0kts
21-Oct-18 12:21 48.705339 -122.909612 179 16ft 0kts
21-Oct-18 12:22 48.705339 -122.909612 179 16ft 0kts
21-Oct-18 12:23 48.705339 -122.909612 179 16ft 0kts
21-Oct-18 12:24 48.705339 -122.909612 179 16ft 0kts
21-Oct-18 12:25 48.705339 -122.909612 179 16ft 0kts
21-Oct-18 12:26 48.705339 -122.909612 179 16ft 0kts
21-Oct-18 12:27 48.705339 -122.909612 179 16ft 0kts
21-Oct-18 12:28 48.705339 -122.909612 179 16ft 0kts
21-Oct-18 12:29 48.705339 -122.909612 179 16ft 0kts
21-Oct-18 12:30 48.705339 -122.909612 179 16ft 0kts
21-Oct-18 12:31 48.705339 -122.909612 179 16ft 0kts
21-Oct-18 12:32 48.704783 -122.910604 350 16ft 23kts
21-Oct-18 12:33 48.716370 -122.895813 81 858ft 85kts
21-Oct-18 12:34 48.718228 -122.856351 71 1677ft 102kts
21-Oct-18 12:35 48.726958 -122.810249 65 1596ft 119kts
21-Oct-18 12:36 48.738145 -122.764318 84 1518ft 116kts
21-Oct-18 12:37 48.723757 -122.720454 121 1338ft 102kts
21-Oct-18 12:38 48.709260 -122.688620 147 986ft 89kts
21-Oct-18 12:39 48.712040 -122.691739 339 420ft 51kts
21-Oct-18 12:40 48.723234 -122.697467 340 157ft 0kts
21-Oct-18 12:41 48.723234 -122.697467 340 157ft 0kts
21-Oct-18 12:42 48.723237 -122.697469 340 157ft 1kts
21-Oct-18 12:43 48.714755 -122.710294 180 744ft 96kts
21-Oct-18 12:44 48.686607 -122.706026 167 1103ft 102kts
21-Oct-18 12:45 48.659177 -122.699220 169 1579ft 99kts
21-Oct-18 12:46 48.632212 -122.692984 170 1994ft 103kts
21-Oct-18 12:47 48.601605 -122.685959 170 2004ft 114kts
21-Oct-18 12:48 48.570073 -122.678713 170 2001ft 115kts
21-Oct-18 12:49 48.537823 -122.671313 172 1627ft 115kts
21-Oct-18 12:50 48.506492 -122.665738 187 958ft 108kts
21-Oct-18 12:51 48.484162 -122.673404 170 998ft 62kts
21-Oct-18 12:52 48.493742 -122.664943 18 292ft 41kts
21-Oct-18 12:53 48.496719 -122.662272 109 244ft 1kts
21-Oct-18 12:54 48.496734 -122.661760 12 244ft 0kts
21-Oct-18 12:55 48.496734 -122.661760 12 244ft 0kts
21-Oct-18 12:56 48.496734 -122.661760 12 244ft 0kts
21-Oct-18 12:57 48.496735 -122.661760 12 244ft 0kts
21-Oct-18 12:58 48.496936 -122.661926 294 244ft 0kts
21-Oct-18 12:59 48.501248 -122.660739 17 341ft 62kts
21-Oct-18 13:00 48.521278 -122.670732 306 929ft 90kts
21-Oct-18 13:01 48.532846 -122.700411 307 1700ft 74kts
21-Oct-18 13:02 48.549724 -122.723740 325 1928ft 105kts
21-Oct-18 13:03 48.574280 -122.752655 325 1940ft 115kts
21-Oct-18 13:04 48.600229 -122.783099 325 1922ft 128kts
21-Oct-18 13:05 48.623139 -122.820516 293 1849ft 125kts
21-Oct-18 13:06 48.636729 -122.868825 309 1432ft 120kts
21-Oct-18 13:07 48.660049 -122.901197 335 1089ft 88kts

Navigation Log

Ident Type
Flight plan parsing failed, navigation log unavailable